Time;durP1;ratioP1;P1;durP2;ratioP2;P2;SDS_P1;SDS_P2;PMS_P1;PMS_P2;Temp;Humidity;BMP_temperature;BMP_pressure;BME280_temperature;BME280_humidity;BME280_pressure;Samples;Min_cycle;Max_cycle;Signal;HPM_P1;HPM_P2
2022/06/13 00:01:14;;;;;;;3.1;2;;;;;;;17.04;72.24902;940.0871;;;;
2022/06/13 00:03:39;;;;;;;3.2;1.9;;;;;;;17.02;72.40625;939.9528;;;;
2022/06/13 00:06:15;;;;;;;3.4;1.9;;;;;;;17.11;71.77246;939.9841;;;;
2022/06/13 00:08:39;;;;;;;2.1;1.9;;;;;;;17.11;71.71582;940.0209;;;;
2022/06/13 00:11:05;;;;;;;1.8;1.7;;;;;;;17.19;71.13672;940.0708;;;;
2022/06/13 00:13:30;;;;;;;2.3;1.8;;;;;;;17.26;70.5332;940.0684;;;;
2022/06/13 00:15:57;;;;;;;2.1;1.9;;;;;;;17.28;71.16211;940.1502;;;;
2022/06/13 00:18:22;;;;;;;2.3;2.1;;;;;;;17.27;71.60156;940.1763;;;;
2022/06/13 00:20:48;;;;;;;3.4;1.8;;;;;;;17.36;71.03613;940.1605;;;;
2022/06/13 00:23:13;;;;;;;2.8;1.9;;;;;;;17.39;70.71582;940.1834;;;;
2022/06/13 00:25:39;;;;;;;2.7;2;;;;;;;17.43;70.17773;940.1928;;;;
2022/06/13 00:28:04;;;;;;;2.3;1.8;;;;;;;17.43;70.7002;940.2935;;;;
2022/06/13 00:30:29;;;;;;;2.2;2;;;;;;;17.45;71.07422;940.2361;;;;
2022/06/13 00:32:55;;;;;;;2.4;2;;;;;;;17.48;72.34473;940.2533;;;;
2022/06/13 00:35:20;;;;;;;2.3;1.9;;;;;;;17.38;72.9082;940.2559;;;;
2022/06/13 00:37:45;;;;;;;1.9;1.8;;;;;;;17.45;71.42188;940.3028;;;;
2022/06/13 00:40:13;;;;;;;1.6;1.5;;;;;;;18.12;68.34766;940.3448;;;;
2022/06/13 00:42:38;;;;;;;1.9;1.3;;;;;;;18.62;67.92578;940.4008;;;;
2022/06/13 00:45:20;;;;;;;1.7;1.4;;;;;;;19.04;66.61621;940.4211;;;;
2022/06/13 00:47:45;;;;;;;3.4;1.5;;;;;;;19.08;66.90234;940.468;;;;
2022/06/13 00:50:16;;;;;;;3;1.4;;;;;;;19.24;66.63477;940.4117;;;;
2022/06/13 00:52:44;;;;;;;1.7;1.5;;;;;;;19.4;67.21875;940.3267;;;;
2022/06/13 00:55:09;;;;;;;1.3;1.2;;;;;;;19.41;68.56152;940.2151;;;;
2022/06/13 00:57:34;;;;;;;1.3;1.2;;;;;;;19.35;69.9248;940.1373;;;;
2022/06/13 00:59:59;;;;;;;2.7;1.6;;;;;;;19.07;72.39648;940.1186;;;;
2022/06/13 01:02:24;;;;;;;2.2;1.6;;;;;;;18.89;74.18164;939.9429;;;;
2022/06/13 01:04:51;;;;;;;2.1;1.9;;;;;;;18.58;75.75781;939.8591;;;;
2022/06/13 01:07:16;;;;;;;2.5;1.8;;;;;;;18.57;75.24414;939.8311;;;;
2022/06/13 01:12:08;;;;;;;1.6;1.5;;;;;;;18.41;80.72754;939.774;;;;
2022/06/13 01:14:33;;;;;;;2.2;1.9;;;;;;;18.29;80.99609;939.7472;;;;
2022/06/13 01:16:59;;;;;;;2;1.8;;;;;;;18.23;81.44922;939.6589;;;;
2022/06/13 01:19:24;;;;;;;1.7;1.5;;;;;;;18.31;79.65137;939.7034;;;;
2022/06/13 01:21:50;;;;;;;2.1;1.9;;;;;;;18.46;79.73535;939.7252;;;;
2022/06/13 01:24:21;;;;;;;2;1.7;;;;;;;18.34;79.57617;939.6133;;;;
2022/06/13 01:28:02;;;;;;;1.8;1.7;;;;;;;18.29;78.99707;939.6626;;;;
2022/06/13 01:30:27;;;;;;;2;1.7;;;;;;;18.26;78.66504;939.6285;;;;
2022/06/13 01:32:55;;;;;;;2.5;1.7;;;;;;;18.32;77.55078;939.5886;;;;
2022/06/13 01:35:20;;;;;;;2.4;1.5;;;;;;;18.32;76.16602;939.6113;;;;
2022/06/13 01:37:45;;;;;;;1.7;1.6;;;;;;;18.39;75.91309;939.6244;;;;
2022/06/13 01:40:10;;;;;;;1.9;1.6;;;;;;;18.32;75.51465;939.596;;;;
2022/06/13 01:42:35;;;;;;;2;1.7;;;;;;;18.42;76.38281;939.6847;;;;
2022/06/13 01:45:00;;;;;;;1.8;1.6;;;;;;;18.4;75.11035;939.6678;;;;
2022/06/13 01:47:25;;;;;;;1.6;1.5;;;;;;;18.49;74.20898;939.6075;;;;
2022/06/13 01:49:51;;;;;;;1.6;1.5;;;;;;;18.64;74.39648;939.6473;;;;
2022/06/13 01:52:16;;;;;;;1.8;1.5;;;;;;;18.7;75.74414;939.659;;;;
2022/06/13 01:54:41;;;;;;;1.6;1.4;;;;;;;18.76;75.47461;939.5926;;;;
2022/06/13 01:57:06;;;;;;;1.7;1.6;;;;;;;18.8;75.43457;939.6014;;;;
2022/06/13 01:59:31;;;;;;;1.5;1.4;;;;;;;18.69;76.2666;939.634;;;;
2022/06/13 02:01:56;;;;;;;2.2;1.5;;;;;;;18.67;77.0293;939.5966;;;;
2022/06/13 02:04:21;;;;;;;2;1.7;;;;;;;18.66;77.41211;939.6621;;;;
2022/06/13 02:06:46;;;;;;;2;1.6;;;;;;;18.68;76.81055;939.6256;;;;
2022/06/13 02:09:11;;;;;;;2.1;1.8;;;;;;;18.78;77.22461;939.6453;;;;
2022/06/13 02:11:37;;;;;;;2.9;1.8;;;;;;;18.69;77.61426;939.606;;;;
2022/06/13 02:14:02;;;;;;;2.5;2;;;;;;;18.59;77.80664;939.5854;;;;
2022/06/13 02:16:27;;;;;;;2.2;1.6;;;;;;;18.53;77.98242;939.5762;;;;
2022/06/13 02:18:52;;;;;;;2.1;1.9;;;;;;;18.46;78.8418;939.5742;;;;
2022/06/13 02:21:17;;;;;;;2.1;1.9;;;;;;;18.43;79.45117;939.6248;;;;
2022/06/13 02:23:42;;;;;;;4.6;2.1;;;;;;;18.4;79.80664;939.6002;;;;
2022/06/13 02:26:07;;;;;;;3.5;1.6;;;;;;;18.47;79.86719;939.6378;;;;
2022/06/13 02:28:32;;;;;;;2.8;1.7;;;;;;;18.35;80.94824;939.6116;;;;
2022/06/13 02:30:58;;;;;;;3;1.7;;;;;;;18.33;81.17676;939.5056;;;;
2022/06/13 02:33:23;;;;;;;2.6;1.9;;;;;;;18.34;80.49316;939.6086;;;;
2022/06/13 02:35:48;;;;;;;2;1.7;;;;;;;18.44;80.66211;939.6295;;;;
2022/06/13 02:38:13;;;;;;;2.2;1.8;;;;;;;18.31;81.70996;939.6082;;;;
2022/06/13 02:40:38;;;;;;;3.1;1.7;;;;;;;18.37;81.39648;939.6652;;;;
2022/06/13 02:43:04;;;;;;;1.9;1.5;;;;;;;18.15;81.57422;939.5712;;;;
2022/06/13 02:45:30;;;;;;;1.5;1.4;;;;;;;17.88;81.84863;939.6143;;;;
2022/06/13 02:47:55;;;;;;;1.6;1.5;;;;;;;17.88;81.43262;939.6223;;;;
2022/06/13 02:50:20;;;;;;;1.7;1.6;;;;;;;17.89;81.91016;939.5867;;;;
2022/06/13 02:52:45;;;;;;;1.7;1.5;;;;;;;17.97;82.28516;939.5942;;;;
2022/06/13 02:55:13;;;;;;;1.5;1.4;;;;;;;17.81;81.39453;939.5387;;;;
2022/06/13 02:57:38;;;;;;;1.3;1.2;;;;;;;17.71;80.85547;939.562;;;;
2022/06/13 03:00:03;;;;;;;1.5;1.4;;;;;;;17.89;80.09863;939.5915;;;;
2022/06/13 03:02:28;;;;;;;3.2;1.5;;;;;;;17.94;79.39844;939.5529;;;;
2022/06/13 03:04:53;;;;;;;1.2;1.1;;;;;;;18.02;79.79688;939.5628;;;;
2022/06/13 03:07:19;;;;;;;1.8;1.7;;;;;;;18.09;80.54102;939.644;;;;
2022/06/13 03:09:45;;;;;;;1.6;1.5;;;;;;;18.1;79.21875;939.6559;;;;
2022/06/13 03:12:10;;;;;;;1.4;1.3;;;;;;;18.16;78.68262;939.7783;;;;
2022/06/13 03:14:35;;;;;;;3.1;1.3;;;;;;;18.21;78.27344;939.9345;;;;
2022/06/13 03:17:01;;;;;;;1.9;1.7;;;;;;;18.19;78.67676;940.0187;;;;
2022/06/13 03:19:26;;;;;;;2;1.8;;;;;;;18.2;78.57422;940.0613;;;;
2022/06/13 03:21:52;;;;;;;2.3;1.6;;;;;;;18.13;78.5498;940.2422;;;;
2022/06/13 03:24:17;;;;;;;2.7;1.7;;;;;;;18;80.33887;940.2173;;;;
2022/06/13 03:26:42;;;;;;;1.6;1.5;;;;;;;17.91;81.90234;940.3398;;;;
2022/06/13 03:29:08;;;;;;;2.2;1.7;;;;;;;17.8;82.71582;940.3049;;;;
2022/06/13 03:31:32;;;;;;;3.3;1.8;;;;;;;17.69;83.97363;940.313;;;;
2022/06/13 03:33:58;;;;;;;3.4;1.9;;;;;;;17.3;88.70117;940.2329;;;;
2022/06/13 03:36:23;;;;;;;3.7;2.1;;;;;;;17.27;89.85254;940.251;;;;
2022/06/13 03:38:49;;;;;;;2.4;2;;;;;;;17.31;89.89551;940.1942;;;;
2022/06/13 03:42:06;;;;;;;3.2;2.1;;;;;;;17.35;89.97363;940.072;;;;
2022/06/13 03:44:31;;;;;;;3.1;2.4;;;;;;;17.29;90.32227;940.1259;;;;
2022/06/13 03:46:56;;;;;;;5;2.1;;;;;;;17.29;90.23926;940.1381;;;;
2022/06/13 03:49:21;;;;;;;2.6;2.2;;;;;;;17.31;90.20801;940.2167;;;;
2022/06/13 03:51:46;;;;;;;3.6;2.2;;;;;;;17.34;89.77539;940.5012;;;;
2022/06/13 03:54:11;;;;;;;2.5;2;;;;;;;17.23;90.71484;940.8745;;;;
2022/06/13 03:56:37;;;;;;;2.2;2;;;;;;;17.29;89.56641;940.8045;;;;
2022/06/13 03:59:03;;;;;;;2.1;1.9;;;;;;;17.26;89.36426;940.52;;;;
2022/06/13 04:02:32;;;;;;;3.5;2.3;;;;;;;16.76;93.57129;940.3931;;;;
2022/06/13 04:04:57;;;;;;;2.3;1.9;;;;;;;16.61;95.25;940.46;;;;
2022/06/13 04:07:25;;;;;;;4;2.5;;;;;;;16.82;96.49023;940.6057;;;;
2022/06/13 04:09:50;;;;;;;3.6;2.8;;;;;;;16.86;97.54102;940.6094;;;;
2022/06/13 04:12:15;;;;;;;3.3;2.3;;;;;;;16.84;97.36523;940.6973;;;;
2022/06/13 04:14:40;;;;;;;7.1;2.3;;;;;;;16.97;96.87207;940.6097;;;;
2022/06/13 04:17:07;;;;;;;3.3;2.2;;;;;;;17.05;95.36035;940.5078;;;;
2022/06/13 04:19:32;;;;;;;3.1;2.2;;;;;;;17.05;94.31738;940.4434;;;;
2022/06/13 04:21:57;;;;;;;2.6;2.1;;;;;;;17.03;94.51953;940.3278;;;;
2022/06/13 04:24:24;;;;;;;3.3;2.4;;;;;;;16.95;95.04883;940.4202;;;;
2022/06/13 04:26:48;;;;;;;3.7;2.4;;;;;;;16.85;96.56836;940.4462;;;;
2022/06/13 04:29:14;;;;;;;4.5;2.5;;;;;;;16.87;97.24414;940.5168;;;;
2022/06/13 04:31:39;;;;;;;3.7;2.4;;;;;;;16.85;96.9043;940.5846;;;;
2022/06/13 04:34:04;;;;;;;2.8;2.2;;;;;;;16.83;97.03711;940.5881;;;;
2022/06/13 04:36:31;;;;;;;3.5;2.2;;;;;;;16.82;96.84961;940.7256;;;;
2022/06/13 04:38:56;;;;;;;2.7;2.3;;;;;;;16.88;96.49121;940.7017;;;;
2022/06/13 04:41:23;;;;;;;3.8;2.4;;;;;;;16.83;96.37891;940.7062;;;;
2022/06/13 04:43:48;;;;;;;3.4;2.1;;;;;;;16.87;96.57227;940.6559;;;;
2022/06/13 04:46:13;;;;;;;2.4;2.2;;;;;;;16.88;97.24414;940.6373;;;;
2022/06/13 04:48:38;;;;;;;3.2;2.3;;;;;;;16.78;97.44238;940.5907;;;;
2022/06/13 04:51:03;;;;;;;2.7;2.4;;;;;;;16.65;99.34766;940.6384;;;;
2022/06/13 04:53:29;;;;;;;3.9;2.6;;;;;;;16.68;99.55078;940.6923;;;;
2022/06/13 04:55:55;;;;;;;5.2;3.2;;;;;;;16.74;99.74121;940.6611;;;;
2022/06/13 04:58:20;;;;;;;3.1;2.8;;;;;;;16.76;99.53613;940.7855;;;;
2022/06/13 05:00:45;;;;;;;4.3;3.1;;;;;;;16.74;99.47461;940.7728;;;;
2022/06/13 05:03:10;;;;;;;3.9;2.5;;;;;;;16.67;99.32813;940.5566;;;;
2022/06/13 05:05:37;;;;;;;3.7;2.8;;;;;;;16.65;99.61621;940.6761;;;;
2022/06/13 05:08:01;;;;;;;3.6;2.3;;;;;;;16.78;99.00586;940.6325;;;;
2022/06/13 05:10:27;;;;;;;2.8;2.4;;;;;;;16.79;98.21094;940.4177;;;;
2022/06/13 05:12:52;;;;;;;2.4;2.2;;;;;;;16.87;97.97363;940.2707;;;;
2022/06/13 05:15:17;;;;;;;3;2.2;;;;;;;16.88;97.24414;940.1355;;;;
2022/06/13 05:17:44;;;;;;;2.5;2.3;;;;;;;17.01;97.27441;940.2249;;;;
2022/06/13 05:20:09;;;;;;;3.1;2.2;;;;;;;17.08;96.79199;940.3369;;;;
2022/06/13 05:22:36;;;;;;;3.7;2.5;;;;;;;17.08;97.44043;940.2524;;;;
2022/06/13 05:25:01;;;;;;;2.8;2.3;;;;;;;17.05;97.14453;940.2534;;;;
2022/06/13 05:27:28;;;;;;;2.6;2.1;;;;;;;16.99;97.89746;940.274;;;;
2022/06/13 05:29:53;;;;;;;3.4;2.2;;;;;;;17.1;96.85352;940.298;;;;
2022/06/13 05:32:19;;;;;;;3.6;2.2;;;;;;;17.14;96.79395;940.2314;;;;
2022/06/13 05:34:44;;;;;;;7.7;3.6;;;;;;;17.2;95.74121;940.1873;;;;
2022/06/13 05:37:10;;;;;;;2.5;2;;;;;;;17.24;96.22461;940.2264;;;;
2022/06/13 05:39:35;;;;;;;3.3;2.2;;;;;;;17.14;97.42969;940.3691;;;;
2022/06/13 05:42:00;;;;;;;2.9;2.3;;;;;;;17.15;97.79297;940.3931;;;;
2022/06/13 05:44:25;;;;;;;2.3;2;;;;;;;17.27;97.04004;940.2866;;;;
2022/06/13 05:46:50;;;;;;;2.2;2;;;;;;;17.38;97.19531;940.4001;;;;
2022/06/13 05:49:17;;;;;;;2.8;2.1;;;;;;;17.35;96.44531;940.4319;;;;
2022/06/13 05:51:41;;;;;;;2.6;2.3;;;;;;;17.32;96.90137;940.6207;;;;
2022/06/13 05:54:06;;;;;;;2.8;2.4;;;;;;;17.32;96.7041;940.644;;;;
2022/06/13 05:56:31;;;;;;;3.1;2.6;;;;;;;17.08;98.53027;940.6314;;;;
2022/06/13 05:58:56;;;;;;;3;2.7;;;;;;;17.04;99.14746;940.5602;;;;
2022/06/13 06:01:21;;;;;;;3.6;2.3;;;;;;;17.17;98.73633;940.6005;;;;
2022/06/13 06:03:46;;;;;;;3.6;2.5;;;;;;;17.17;98.11035;940.5474;;;;
2022/06/13 06:06:11;;;;;;;3.5;3.2;;;;;;;17.14;98.18262;940.6862;;;;
2022/06/13 06:08:37;;;;;;;2.6;2.4;;;;;;;17.14;98.20605;940.5341;;;;
2022/06/13 06:11:02;;;;;;;4;2.5;;;;;;;17.21;97.90918;940.5783;;;;
2022/06/13 06:13:27;;;;;;;2.7;2.2;;;;;;;17.17;97.44922;940.4637;;;;
2022/06/13 06:15:54;;;;;;;2.6;2.4;;;;;;;17.26;97.05176;940.4299;;;;
2022/06/13 06:18:19;;;;;;;2.9;2.1;;;;;;;17.36;96.48242;940.2385;;;;
2022/06/13 06:20:45;;;;;;;3.4;2;;;;;;;17.45;95.67871;940.2433;;;;
2022/06/13 06:23:11;;;;;;;3.1;2;;;;;;;17.49;96.09277;940.2781;;;;
2022/06/13 06:25:39;;;;;;;3.1;2;;;;;;;17.55;93.69238;940.3128;;;;
2022/06/13 06:28:04;;;;;;;4.5;2;;;;;;;17.67;94.68066;940.2388;;;;
2022/06/13 06:30:31;;;;;;;2.6;1.8;;;;;;;17.51;96.79395;940.3254;;;;
2022/06/13 06:32:56;;;;;;;2.4;1.8;;;;;;;17.77;96.83887;940.3311;;;;
2022/06/13 06:35:23;;;;;;;3.3;2;;;;;;;17.94;95.18262;940.2933;;;;
2022/06/13 06:37:48;;;;;;;2.2;1.7;;;;;;;18.19;94.09863;940.3508;;;;
2022/06/13 06:40:14;;;;;;;2.2;1.5;;;;;;;18.27;92.66113;940.3523;;;;
2022/06/13 06:42:39;;;;;;;2.7;1.6;;;;;;;18.45;93.8623;940.3309;;;;
2022/06/13 06:45:04;;;;;;;1.7;1.6;;;;;;;18.53;93.12305;940.3423;;;;
2022/06/13 06:47:31;;;;;;;3.1;1.6;;;;;;;18.6;92.02051;940.3306;;;;
2022/06/13 06:49:56;;;;;;;2.1;1.7;;;;;;;18.63;90.7832;940.3032;;;;
2022/06/13 06:52:22;;;;;;;2.1;1.6;;;;;;;18.66;87.20605;940.3164;;;;
2022/06/13 06:59:57;;;;;;;2;1.4;;;;;;;18.6;89.19434;940.2847;;;;
2022/06/13 07:02:14;;;;;;;1.7;1.4;;;;;;;18.66;89.61426;940.3099;;;;
2022/06/13 07:04:39;;;;;;;1.9;1.2;;;;;;;18.68;88.65234;940.3024;;;;
2022/06/13 07:07:06;;;;;;;2.3;1.4;;;;;;;18.67;89.17578;940.1702;;;;
2022/06/13 07:09:31;;;;;;;2.7;1.6;;;;;;;18.77;88.94824;940.2071;;;;
2022/06/13 07:11:56;;;;;;;1.9;1.6;;;;;;;18.92;88.08398;940.2125;;;;
2022/06/13 07:14:22;;;;;;;2.2;1.4;;;;;;;19.1;88.1416;940.2311;;;;
2022/06/13 07:16:47;;;;;;;2.2;1.5;;;;;;;19.36;87.42578;940.2679;;;;
2022/06/13 07:19:13;;;;;;;1.8;1.7;;;;;;;19.51;87.67676;940.332;;;;
2022/06/13 07:21:38;;;;;;;2;1.5;;;;;;;19.47;86.80566;940.3807;;;;
2022/06/13 07:24:05;;;;;;;3;1.4;;;;;;;19.51;87.73535;940.3466;;;;
2022/06/13 07:26:31;;;;;;;2.8;1.6;;;;;;;19.54;87.94043;940.343;;;;
2022/06/13 07:28:55;;;;;;;1.4;1.3;;;;;;;19.56;87.12891;940.4055;;;;
2022/06/13 07:31:20;;;;;;;2;1.4;;;;;;;19.5;84.86621;940.4598;;;;
2022/06/13 07:33:47;;;;;;;2.7;1.3;;;;;;;19.45;85.69727;940.5909;;;;
2022/06/13 07:36:12;;;;;;;2.6;1.4;;;;;;;19.09;87.33691;940.618;;;;
2022/06/13 07:38:38;;;;;;;1.4;1.3;;;;;;;19.18;87.97168;940.6178;;;;
2022/06/13 07:41:03;;;;;;;2;1.8;;;;;;;19.33;89.28418;940.5722;;;;
2022/06/13 07:43:28;;;;;;;1.8;1.7;;;;;;;19.44;90.25;940.5726;;;;
2022/06/13 07:45:55;;;;;;;1.6;1.5;;;;;;;19.84;88.1748;940.4629;;;;
2022/06/13 07:48:20;;;;;;;1.9;1.6;;;;;;;20.25;84.56543;940.5203;;;;
2022/06/13 07:50:45;;;;;;;1.8;1.5;;;;;;;20.24;81.83398;940.498;;;;
2022/06/13 07:53:10;;;;;;;1.4;1.2;;;;;;;20.07;82.52539;940.4272;;;;
2022/06/13 07:55:36;;;;;;;1.6;1.5;;;;;;;20;83.19043;940.4221;;;;
2022/06/13 07:58:01;;;;;;;2.3;1.6;;;;;;;19.8;86.04492;940.373;;;;
2022/06/13 08:00:26;;;;;;;2.2;1.6;;;;;;;20.3;84.98438;940.3105;;;;
2022/06/13 08:02:51;;;;;;;1.5;1.4;;;;;;;22.57;80.09375;940.3463;;;;
2022/06/13 08:05:17;;;;;;;1.3;1.1;;;;;;;25;68.34277;940.3285;;;;
2022/06/13 08:07:42;;;;;;;1.9;1.3;;;;;;;26.77;63.00879;940.3304;;;;
2022/06/13 08:10:09;;;;;;;2;1;;;;;;;27.45;54.55078;940.3571;;;;
2022/06/13 08:12:34;;;;;;;1.6;1.3;;;;;;;27.18;53.54688;940.3312;;;;
2022/06/13 08:14:59;;;;;;;1.8;1.3;;;;;;;26.64;55.3291;940.389;;;;
2022/06/13 08:17:24;;;;;;;1.1;1.1;;;;;;;25.43;55.84082;940.397;;;;
2022/06/13 08:19:52;;;;;;;1.9;1.2;;;;;;;24.64;60.8252;940.4622;;;;
2022/06/13 08:22:16;;;;;;;2.6;1.1;;;;;;;24.35;61.36133;940.4355;;;;
2022/06/13 08:24:41;;;;;;;1.2;1.1;;;;;;;24.05;63.16992;940.519;;;;
2022/06/13 08:27:06;;;;;;;1.3;1.2;;;;;;;23.51;63.68164;940.5335;;;;
2022/06/13 08:29:33;;;;;;;2.3;1.2;;;;;;;22.98;65.73145;940.4316;;;;
2022/06/13 08:31:58;;;;;;;1.7;1.1;;;;;;;22.66;67.44531;940.3884;;;;
2022/06/13 08:34:24;;;;;;;2.4;1.2;;;;;;;22.36;74.03906;940.4503;;;;
2022/06/13 08:36:49;;;;;;;0.9;0.9;;;;;;;23.91;70.75488;940.4109;;;;
2022/06/13 08:39:17;;;;;;;2.2;1.2;;;;;;;25.15;67.16211;940.421;;;;
2022/06/13 08:41:42;;;;;;;1.1;1;;;;;;;26.47;57.45215;940.4662;;;;
2022/06/13 08:44:09;;;;;;;1.7;1.3;;;;;;;26.23;57.07715;940.5125;;;;
2022/06/13 08:46:34;;;;;;;2.1;1.3;;;;;;;25.63;61.19727;940.5399;;;;
2022/06/13 08:48:59;;;;;;;1.7;1.4;;;;;;;25.14;60.21875;940.5862;;;;
2022/06/13 08:51:24;;;;;;;1.6;1.1;;;;;;;23.56;63.20508;940.7131;;;;
2022/06/13 08:53:49;;;;;;;1.5;1.4;;;;;;;23.42;63.46875;940.8253;;;;
2022/06/13 08:56:14;;;;;;;1.7;1.4;;;;;;;22.63;67.73438;940.7708;;;;
2022/06/13 08:58:39;;;;;;;1.5;1.2;;;;;;;22.1;69.50586;940.687;;;;
2022/06/13 09:01:05;;;;;;;1.9;1.2;;;;;;;21.71;72.75977;940.7717;;;;
2022/06/13 09:03:30;;;;;;;2.8;1.5;;;;;;;21.47;75.01367;940.9139;;;;
2022/06/13 09:05:56;;;;;;;3.2;1.6;;;;;;;21.08;76.10645;940.9935;;;;
2022/06/13 09:08:21;;;;;;;2.3;1.8;;;;;;;20.89;77.65332;941.0337;;;;
2022/06/13 09:10:47;;;;;;;1.8;1.3;;;;;;;20.59;79.23535;940.9299;;;;
2022/06/13 09:13:12;;;;;;;2.5;1.5;;;;;;;20.52;80.70605;940.9041;;;;
2022/06/13 09:16:34;;;;;;;1.8;1.6;;;;;;;20.74;81.72852;940.9807;;;;
2022/06/13 09:18:58;;;;;;;2.4;1.8;;;;;;;21.07;82.1748;940.933;;;;
2022/06/13 09:21:24;;;;;;;2.5;1.6;;;;;;;20.93;80.61816;941.0342;;;;
2022/06/13 09:23:50;;;;;;;3.6;1.8;;;;;;;20.91;81.55859;941.0552;;;;
2022/06/13 09:26:15;;;;;;;1.7;1.4;;;;;;;20.99;80.75586;941.0773;;;;
2022/06/13 09:28:40;;;;;;;1.9;1.2;;;;;;;21.09;77.78223;941.0051;;;;
2022/06/13 09:31:06;;;;;;;1.6;1;;;;;;;21.12;75.9248;941.075;;;;
2022/06/13 09:33:31;;;;;;;2.3;1.3;;;;;;;20.92;78.91895;941.1739;;;;
2022/06/13 09:35:56;;;;;;;1.5;1.3;;;;;;;20.69;78.26953;941.1067;;;;
2022/06/13 09:38:21;;;;;;;1.5;1.2;;;;;;;20.43;78.4707;941.1579;;;;
2022/06/13 09:40:46;;;;;;;3.2;1.1;;;;;;;20.24;81.34375;941.1415;;;;
2022/06/13 09:43:12;;;;;;;2.7;1.3;;;;;;;20.23;80.78125;941.158;;;;
2022/06/13 09:45:37;;;;;;;2.1;1.2;;;;;;;19.8;83.34961;941.1829;;;;
2022/06/13 09:48:02;;;;;;;1.5;1.4;;;;;;;19.91;82.27344;941.1663;;;;
2022/06/13 09:50:27;;;;;;;1.9;1.2;;;;;;;19.92;82.77637;941.1774;;;;
2022/06/13 09:52:52;;;;;;;2.4;1.7;;;;;;;19.92;85.00684;941.0981;;;;
2022/06/13 09:55:19;;;;;;;1.8;1.3;;;;;;;20.05;85.49805;941.1334;;;;
2022/06/13 09:57:42;;;;;;;1.1;1;;;;;;;20.32;82.99316;941.1429;;;;
2022/06/13 10:00:16;;;;;;;2.1;1.2;;;;;;;20.67;79.69336;941.1078;;;;
2022/06/13 10:02:41;;;;;;;1.5;1.2;;;;;;;20.43;80.14063;941.0834;;;;
2022/06/13 10:05:06;;;;;;;1.3;1.2;;;;;;;20.39;82.02539;941.0223;;;;
2022/06/13 10:07:31;;;;;;;1.2;1.1;;;;;;;20.73;80.57031;941.1434;;;;
2022/06/13 10:09:56;;;;;;;2.2;1.3;;;;;;;20.53;79.32715;941.0933;;;;
2022/06/13 10:12:22;;;;;;;2.3;1.5;;;;;;;20.49;81.58887;940.9963;;;;
2022/06/13 10:14:47;;;;;;;1.3;1.2;;;;;;;20.86;77.8457;941.041;;;;
2022/06/13 10:17:12;;;;;;;2.4;1.5;;;;;;;21.06;72.13672;941.0337;;;;
2022/06/13 10:19:37;;;;;;;3.9;1.5;;;;;;;20.96;75.82715;941.1786;;;;
2022/06/13 10:22:03;;;;;;;2.8;1.3;;;;;;;20.78;76.89648;941.2126;;;;
2022/06/13 10:24:28;;;;;;;2.1;1.5;;;;;;;20.53;72.85742;941.2187;;;;
2022/06/13 10:26:53;;;;;;;2.6;1.6;;;;;;;20.63;71.16797;941.2253;;;;
2022/06/13 10:29:19;;;;;;;2.8;1.6;;;;;;;20.82;72.91699;941.3259;;;;
2022/06/13 10:31:46;;;;;;;2.2;1.6;;;;;;;20.54;73.88867;941.3486;;;;
2022/06/13 10:34:11;;;;;;;2;1.6;;;;;;;20.71;73.10742;941.2939;;;;
2022/06/13 10:36:37;;;;;;;3.7;1.5;;;;;;;20.83;74.74121;941.236;;;;
2022/06/13 10:39:02;;;;;;;2.4;1.6;;;;;;;20.97;74.48535;941.2996;;;;
2022/06/13 10:41:27;;;;;;;2.6;1.6;;;;;;;21.2;71.83398;941.2525;;;;
2022/06/13 10:43:52;;;;;;;2.9;1.6;;;;;;;21.25;70.08789;941.2695;;;;
2022/06/13 10:46:18;;;;;;;1.4;1.3;;;;;;;20.89;69.88867;941.3422;;;;
2022/06/13 10:48:59;;;;;;;2.3;1.5;;;;;;;20.6;71.93457;941.3398;;;;
2022/06/13 10:51:24;;;;;;;2.2;1.6;;;;;;;20.84;67.71875;941.2389;;;;
2022/06/13 10:53:51;;;;;;;2.9;1.7;;;;;;;20.75;68.76758;941.322;;;;
2022/06/13 10:56:16;;;;;;;2.1;1.5;;;;;;;20.61;68.79492;941.3962;;;;
2022/06/13 10:58:41;;;;;;;1.9;1.7;;;;;;;20.94;70.7041;941.3675;;;;
2022/06/13 11:01:07;;;;;;;5.2;1.8;;;;;;;21.16;69.42676;941.3622;;;;
2022/06/13 11:03:31;;;;;;;2.9;1.7;;;;;;;21.52;70.28125;941.3792;;;;
2022/06/13 11:05:56;;;;;;;2.5;1.7;;;;;;;21.31;68.56152;941.3063;;;;
2022/06/13 11:08:21;;;;;;;1.9;1.6;;;;;;;21.16;68.94922;941.2698;;;;
2022/06/13 11:10:46;;;;;;;1.6;1.5;;;;;;;21.34;68.29688;941.3524;;;;
2022/06/13 11:13:11;;;;;;;1.6;1.5;;;;;;;21.31;67.90625;941.3961;;;;
2022/06/13 11:22:56;;;;;;;3.9;1.9;;;;;;;20.82;69.56152;941.3695;;;;
2022/06/13 11:25:21;;;;;;;2.3;1.6;;;;;;;20.51;69.43164;941.3858;;;;
2022/06/13 11:27:46;;;;;;;2.3;1.8;;;;;;;20.79;71.8252;941.4554;;;;
2022/06/13 11:30:13;;;;;;;2.2;1.7;;;;;;;20.21;69.58398;941.437;;;;
2022/06/13 11:32:38;;;;;;;3.1;1.9;;;;;;;19.87;70.25293;941.4888;;;;
2022/06/13 11:35:05;;;;;;;4.1;2;;;;;;;19.56;71.69434;941.4777;;;;
2022/06/13 11:37:30;;;;;;;2.9;1.9;;;;;;;19.59;73.39063;941.4009;;;;
2022/06/13 11:39:56;;;;;;;4.1;2.1;;;;;;;19.64;74.24902;941.6024;;;;
2022/06/13 11:42:24;;;;;;;3.5;2.2;;;;;;;20.02;71.93359;941.6644;;;;
2022/06/13 11:44:48;;;;;;;1.8;1.6;;;;;;;20.35;71.0293;941.613;;;;
2022/06/13 11:47:14;;;;;;;2.1;1.8;;;;;;;19.82;70.80371;941.5098;;;;
2022/06/13 11:49:39;;;;;;;2.6;1.7;;;;;;;19.72;72.44336;941.5037;;;;
2022/06/13 11:52:05;;;;;;;2;1.8;;;;;;;20.22;73.2041;941.5844;;;;
2022/06/13 11:54:29;;;;;;;1.9;1.8;;;;;;;20.53;71.28027;941.5778;;;;
2022/06/13 11:56:54;;;;;;;2.1;1.9;;;;;;;20.98;69.79785;941.5204;;;;
2022/06/13 11:59:20;;;;;;;3.8;1.6;;;;;;;21.39;69.49902;941.4799;;;;
2022/06/13 12:01:45;;;;;;;5.1;2;;;;;;;20.92;67.39063;941.505;;;;
2022/06/13 12:04:10;;;;;;;2.4;1.7;;;;;;;20.46;70.7334;941.5737;;;;
2022/06/13 12:06:37;;;;;;;4.5;1.6;;;;;;;20.29;69.875;941.5538;;;;
2022/06/13 12:09:03;;;;;;;2.5;1.6;;;;;;;20.31;67.70605;941.4975;;;;
2022/06/13 12:11:27;;;;;;;2.1;1.9;;;;;;;20.07;70.28418;941.4144;;;;
2022/06/13 12:13:53;;;;;;;2.6;1.7;;;;;;;20.06;67.41211;941.4511;;;;
2022/06/13 12:16:17;;;;;;;2.5;1.8;;;;;;;20;67.29785;941.4504;;;;
2022/06/13 12:18:42;;;;;;;4.3;2;;;;;;;20.09;66.03906;941.4254;;;;
2022/06/13 12:21:09;;;;;;;3.1;2.1;;;;;;;20.47;69.00391;941.4352;;;;
2022/06/13 12:23:34;;;;;;;3.7;2;;;;;;;20.67;67.41211;941.5125;;;;
2022/06/13 12:25:59;;;;;;;3;1.9;;;;;;;20.85;63.70996;941.4581;;;;
2022/06/13 12:28:24;;;;;;;2.5;1.9;;;;;;;21.24;66.25879;941.5582;;;;
2022/06/13 12:30:50;;;;;;;2.5;1.6;;;;;;;21.69;63.58594;941.5311;;;;
2022/06/13 12:33:14;;;;;;;2.6;1.6;;;;;;;21.89;59.98145;941.4642;;;;
2022/06/13 12:35:39;;;;;;;1.6;1.5;;;;;;;22.03;60.32813;941.5236;;;;
2022/06/13 12:38:06;;;;;;;1.8;1.6;;;;;;;22.2;59.66016;941.5123;;;;
2022/06/13 12:40:31;;;;;;;5.9;1.9;;;;;;;22.76;60.9209;941.5225;;;;
2022/06/13 12:42:56;;;;;;;2.6;1.7;;;;;;;22.44;58.33008;941.4317;;;;
2022/06/13 12:45:21;;;;;;;4;1.7;;;;;;;22.76;59.57031;941.3723;;;;
2022/06/13 12:47:46;;;;;;;2.3;1.6;;;;;;;22.74;59.70898;941.402;;;;
2022/06/13 12:50:15;;;;;;;2.2;2;;;;;;;22.93;60.5332;941.4063;;;;
2022/06/13 12:52:40;;;;;;;2.2;1.6;;;;;;;23.1;57.67676;941.4001;;;;
2022/06/13 12:55:05;;;;;;;3.7;1.5;;;;;;;22.58;57.14063;941.3753;;;;
2022/06/13 12:57:30;;;;;;;1.7;1.6;;;;;;;22.18;61.20508;941.4998;;;;
2022/06/13 12:59:56;;;;;;;2.8;1.6;;;;;;;22.55;59.89453;941.5005;;;;
2022/06/13 13:02:22;;;;;;;2.8;1.7;;;;;;;22.6;55.57031;941.4543;;;;
2022/06/13 13:04:47;;;;;;;4.2;1.7;;;;;;;22.58;54.94629;941.467;;;;
2022/06/13 13:07:14;;;;;;;2.2;1.3;;;;;;;22.83;58.32422;941.4713;;;;
2022/06/13 13:09:40;;;;;;;3;1.8;;;;;;;23.13;54.99023;941.4217;;;;
2022/06/13 13:12:04;;;;;;;2.8;1.4;;;;;;;23;54.26855;941.4203;;;;
2022/06/13 13:14:29;;;;;;;2.5;1.5;;;;;;;23.16;54.80664;941.4554;;;;
2022/06/13 13:16:56;;;;;;;1.6;1.4;;;;;;;22.77;54.31152;941.4556;;;;
2022/06/13 13:19:21;;;;;;;3.1;1.7;;;;;;;22.87;57.04883;941.4691;;;;
2022/06/13 13:21:46;;;;;;;1.8;1.5;;;;;;;23.18;53.41113;941.402;;;;
2022/06/13 13:24:11;;;;;;;1.9;1.5;;;;;;;23.32;54.01465;941.3714;;;;
2022/06/13 13:26:36;;;;;;;1.7;1.6;;;;;;;23.57;51.49316;941.3405;;;;
2022/06/13 13:29:04;;;;;;;2.6;1.5;;;;;;;23.73;50.81641;941.4019;;;;
2022/06/13 13:31:30;;;;;;;3.4;1.8;;;;;;;23.67;53.5166;941.4276;;;;
2022/06/13 13:33:54;;;;;;;2.3;1.4;;;;;;;24.1;48.50391;941.4252;;;;
2022/06/13 13:36:19;;;;;;;2.8;1.4;;;;;;;24.17;50.6084;941.4128;;;;
2022/06/13 13:38:44;;;;;;;2.2;1.4;;;;;;;24.36;50.12402;941.3808;;;;
2022/06/13 13:41:10;;;;;;;2.6;1.8;;;;;;;24.45;50.07422;941.3426;;;;
2022/06/13 13:43:34;;;;;;;3.2;1.5;;;;;;;24.16;50.08887;941.2946;;;;
2022/06/13 13:46:00;;;;;;;3.1;1.6;;;;;;;23.91;55.02734;941.3245;;;;
2022/06/13 13:48:26;;;;;;;3.6;1.5;;;;;;;24.06;52.66797;941.2861;;;;
2022/06/13 13:50:53;;;;;;;2.5;1.5;;;;;;;23.93;54.20605;941.3289;;;;
2022/06/13 13:53:20;;;;;;;2.1;1.5;;;;;;;23.98;50.35059;941.3431;;;;
2022/06/13 13:55:46;;;;;;;2;1.3;;;;;;;23.92;52.89844;941.3121;;;;
2022/06/13 13:58:12;;;;;;;2.5;1.4;;;;;;;23.76;53.10254;941.3494;;;;
2022/06/13 14:00:37;;;;;;;2.6;1.8;;;;;;;23.83;52.42871;941.3683;;;;
2022/06/13 14:03:07;;;;;;;2;1.4;;;;;;;23.51;51.35742;941.33;;;;
2022/06/13 14:05:33;;;;;;;1.5;1.4;;;;;;;23.59;52.8252;941.3901;;;;
2022/06/13 14:07:58;;;;;;;4.6;1.8;;;;;;;23.98;51.5166;941.4009;;;;
2022/06/13 14:10:23;;;;;;;2;1.6;;;;;;;24.13;52.98242;941.4291;;;;
2022/06/13 14:12:48;;;;;;;1.5;1.4;;;;;;;24.22;50.11816;941.4117;;;;
2022/06/13 14:15:16;;;;;;;3.3;1.6;;;;;;;24.34;52.20605;941.3197;;;;
2022/06/13 14:17:41;;;;;;;1.8;1.6;;;;;;;24.13;49.54395;941.3254;;;;
2022/06/13 14:20:08;;;;;;;1.5;1.4;;;;;;;23.72;49.47461;941.3176;;;;
2022/06/13 14:22:31;;;;;;;2.3;1.4;;;;;;;23.95;48.93555;941.2687;;;;
2022/06/13 14:24:56;;;;;;;2.7;1.4;;;;;;;24.03;49.32129;941.3042;;;;
2022/06/13 14:27:22;;;;;;;3.4;1.6;;;;;;;24.04;48.85059;941.3462;;;;
2022/06/13 14:29:49;;;;;;;1.8;1.6;;;;;;;23.68;50.51758;941.2533;;;;
2022/06/13 14:32:13;;;;;;;2.7;1.5;;;;;;;23.81;50.07324;941.2296;;;;
2022/06/13 14:37:06;;;;;;;1.7;1.3;;;;;;;23.96;47.7002;941.3138;;;;